Time;durP1;ratioP1;P1;durP2;ratioP2;P2;SDS_P1;SDS_P2;PMS_P1;PMS_P2;Temp;Humidity;BMP_temperature;BMP_pressure;BME280_temperature;BME280_humidity;BME280_pressure;Samples;Min_cycle;Max_cycle;Signal;HPM_P1;HPM_P2
2022/12/04 00:01:10;;;;;;;53.93;32.97;;;;;;;2.12;100.00;101674.81;5064437;28;20242;-64
2022/12/04 00:03:38;;;;;;;63.33;35.20;;;;;;;1.80;100.00;101670.66;5067482;28;20230;-64
2022/12/04 00:06:08;;;;;;;53.77;33.13;;;;;;;2.02;100.00;101670.00;5072172;28;20237;-65
2022/12/04 00:08:36;;;;;;;56.37;33.50;;;;;;;1.98;100.00;101680.16;5080241;28;20238;-66
2022/12/04 00:11:04;;;;;;;60.43;35.07;;;;;;;1.81;100.00;101682.78;5085220;28;20250;-66
2022/12/04 00:13:32;;;;;;;53.93;33.90;;;;;;;2.21;100.00;101674.38;5069712;28;20241;-66
2022/12/04 00:16:12;;;;;;;61.13;38.00;;;;;;;2.22;100.00;101678.75;5068134;28;20237;-65
2022/12/04 00:18:46;;;;;;;58.40;34.23;;;;;;;2.21;100.00;101683.84;5067727;28;20237;-68
2022/12/04 00:21:22;;;;;;;51.73;30.77;;;;;;;2.61;100.00;101677.13;5057428;27;20289;-65
2022/12/04 00:23:52;;;;;;;62.87;33.57;;;;;;;2.10;100.00;101683.31;5064650;28;20807;-64
2022/12/04 00:26:24;;;;;;;57.93;34.93;;;;;;;2.13;100.00;101684.34;5074583;28;20237;-64
2022/12/04 00:28:57;;;;;;;58.03;35.63;;;;;;;2.15;100.00;101674.97;5075585;28;20241;-65
2022/12/04 00:31:30;;;;;;;58.93;33.90;;;;;;;1.99;100.00;101674.16;5069312;28;20253;-65
2022/12/04 00:33:57;;;;;;;56.37;36.20;;;;;;;1.66;100.00;101669.09;5061515;28;20252;-64
2022/12/04 00:36:27;;;;;;;58.33;33.67;;;;;;;1.69;100.00;101666.66;5081686;28;20259;-65
2022/12/04 00:38:54;;;;;;;61.87;35.47;;;;;;;1.71;100.00;101664.13;5064341;28;20421;-65
2022/12/04 00:41:24;;;;;;;57.30;35.47;;;;;;;1.83;100.00;101668.22;5063392;28;20233;-65
2022/12/04 00:43:52;;;;;;;60.60;37.27;;;;;;;1.97;100.00;101660.25;5060820;28;20234;-63
2022/12/04 00:46:19;;;;;;;54.80;34.93;;;;;;;1.92;100.00;101666.06;5065502;28;20233;-63
2022/12/04 00:48:46;;;;;;;64.73;35.47;;;;;;;1.98;100.00;101659.44;5077627;28;20247;-64
2022/12/04 00:51:14;;;;;;;55.53;33.50;;;;;;;1.84;100.00;101666.53;5075646;28;20691;-64
2022/12/04 00:53:43;;;;;;;57.50;34.00;;;;;;;1.90;100.00;101672.91;5076648;28;20242;-64
2022/12/04 00:56:15;;;;;;;65.63;35.07;;;;;;;1.93;100.00;101664.41;5071529;28;20694;-64
2022/12/04 00:58:43;;;;;;;56.77;34.57;;;;;;;2.02;100.00;101664.81;5068221;28;20282;-64
2022/12/04 01:01:11;;;;;;;56.63;33.00;;;;;;;2.28;100.00;101671.28;5061149;28;20242;-64
2022/12/04 01:03:38;;;;;;;61.80;33.70;;;;;;;2.30;100.00;101667.03;5075226;28;20242;-63
2022/12/04 01:06:06;;;;;;;64.73;36.03;;;;;;;2.05;100.00;101661.50;5075897;28;20584;-63
2022/12/04 01:08:33;;;;;;;55.07;34.40;;;;;;;2.18;100.00;101662.97;5074192;28;20877;-65
2022/12/04 01:11:05;;;;;;;56.60;35.70;;;;;;;2.24;100.00;101668.44;5056050;28;20233;-65
2022/12/04 01:13:32;;;;;;;57.10;33.00;;;;;;;2.55;100.00;101665.59;5059657;27;20238;-65
2022/12/04 01:15:59;;;;;;;57.13;35.23;;;;;;;2.47;100.00;101661.75;5080929;28;20252;-64
2022/12/04 01:18:26;;;;;;;57.03;33.63;;;;;;;2.46;100.00;101658.28;5079728;28;20286;-65
2022/12/04 01:20:53;;;;;;;62.10;35.67;;;;;;;2.47;100.00;101659.19;5080804;28;20233;-65
2022/12/04 01:23:20;;;;;;;65.57;36.37;;;;;;;1.96;100.00;101664.50;5079144;28;20313;-64
2022/12/04 01:25:51;;;;;;;57.20;34.97;;;;;;;2.30;100.00;101669.63;5075108;28;20235;-66
2022/12/04 01:28:20;;;;;;;67.77;37.20;;;;;;;2.00;100.00;101657.78;5076710;28;20317;-63
2022/12/04 01:31:00;;;;;;;62.03;36.80;;;;;;;2.12;100.00;101663.56;5069525;28;20351;-64
2022/12/04 01:33:27;;;;;;;68.27;35.87;;;;;;;1.98;100.00;101659.44;5069285;28;20859;-63
2022/12/04 01:35:54;;;;;;;65.80;39.00;;;;;;;1.63;100.00;101654.28;5062884;28;20261;-63
2022/12/04 01:38:21;;;;;;;69.87;35.50;;;;;;;1.71;100.00;101664.13;5077952;28;20368;-64
2022/12/04 01:40:47;;;;;;;60.97;36.10;;;;;;;1.94;100.00;101652.34;5065421;28;20396;-66
2022/12/04 01:43:14;;;;;;;69.23;38.17;;;;;;;2.26;100.00;101665.13;5072360;28;20281;-64
2022/12/04 01:45:44;;;;;;;55.00;35.17;;;;;;;2.08;100.00;101654.78;5069198;28;22412;-62
2022/12/04 01:48:17;;;;;;;60.67;33.77;;;;;;;2.42;100.00;101655.47;5066310;28;20238;-65
2022/12/04 01:50:44;;;;;;;64.00;36.70;;;;;;;2.36;100.00;101656.09;5054460;28;20652;-64
2022/12/04 01:53:11;;;;;;;62.00;34.60;;;;;;;2.35;100.00;101657.78;5062295;28;20242;-63
2022/12/04 01:55:38;;;;;;;64.90;37.20;;;;;;;2.17;100.00;101641.34;5058230;28;20235;-65
2022/12/04 01:58:06;;;;;;;65.67;36.73;;;;;;;2.22;100.00;101639.88;5064635;28;20341;-64
2022/12/04 02:00:33;;;;;;;62.73;35.83;;;;;;;2.16;100.00;101642.19;5066930;28;20728;-65
2022/12/04 02:03:01;;;;;;;66.33;37.93;;;;;;;2.00;100.00;101642.25;5066699;28;20304;-65
2022/12/04 02:05:28;;;;;;;67.57;36.60;;;;;;;1.87;100.00;101636.50;5058055;28;20366;-65
2022/12/04 02:07:58;;;;;;;70.70;38.73;;;;;;;2.07;100.00;101636.53;5060038;28;20320;-65
2022/12/04 02:10:30;;;;;;;67.30;38.20;;;;;;;2.00;100.00;101629.28;5055181;28;20246;-63
2022/12/04 02:13:02;;;;;;;65.43;37.20;;;;;;;1.88;100.00;101638.25;5060496;28;20790;-64
2022/12/04 02:15:33;;;;;;;70.07;39.80;;;;;;;1.98;100.00;101633.53;5059026;28;20375;-64
2022/12/04 02:18:05;;;;;;;78.83;39.73;;;;;;;1.97;100.00;101631.78;5056534;28;20672;-62
2022/12/04 02:20:34;;;;;;;71.23;40.27;;;;;;;2.03;100.00;101627.75;5063167;28;20709;-64
2022/12/04 02:23:35;;;;;;;63.83;37.90;;;;;;;1.91;100.00;101624.56;5054597;28;20234;-63
2022/12/04 02:26:10;;;;;;;63.80;38.07;;;;;;;1.76;100.00;101624.72;5065554;28;20323;-63
2022/12/04 02:28:41;;;;;;;67.30;37.57;;;;;;;1.93;100.00;101625.56;5079634;28;20308;-64
2022/12/04 02:31:12;;;;;;;77.60;38.90;;;;;;;1.97;100.00;101624.88;5081135;28;20261;-64
2022/12/04 02:33:44;;;;;;;73.43;38.87;;;;;;;1.91;100.00;101622.00;5080388;28;20241;-64
2022/12/04 02:36:13;;;;;;;65.53;37.63;;;;;;;2.06;100.00;101624.41;5080948;28;20681;-65
2022/12/04 02:38:42;;;;;;;74.17;36.80;;;;;;;1.73;100.00;101618.50;5079004;28;20253;-65
2022/12/04 02:41:13;;;;;;;72.90;39.73;;;;;;;1.78;100.00;101615.31;5064276;28;20313;-64
2022/12/04 02:43:44;;;;;;;68.97;38.57;;;;;;;2.15;100.00;101624.88;5071551;28;20229;-64
2022/12/04 02:46:14;;;;;;;75.13;40.83;;;;;;;1.94;100.00;101618.66;5059722;28;20913;-64
2022/12/04 02:48:44;;;;;;;64.97;39.03;;;;;;;1.85;100.00;101617.38;5061273;28;20241;-64
2022/12/04 02:51:11;;;;;;;72.20;40.03;;;;;;;1.99;100.00;101614.59;5068733;28;20700;-63
2022/12/04 02:53:40;;;;;;;71.83;36.77;;;;;;;2.18;100.00;101606.88;5068045;28;20317;-65
2022/12/04 02:56:10;;;;;;;67.97;38.13;;;;;;;2.32;100.00;101605.81;5073699;28;20227;-65
2022/12/04 02:58:41;;;;;;;75.77;39.30;;;;;;;2.20;100.00;101604.34;5086505;28;20314;-63
2022/12/04 03:01:18;;;;;;;67.17;37.73;;;;;;;2.12;100.00;101601.41;5077628;28;20258;-65
2022/12/04 03:03:47;;;;;;;62.57;38.40;;;;;;;2.26;100.00;101594.28;5065203;28;20261;-64
2022/12/04 03:06:17;;;;;;;62.93;38.93;;;;;;;2.04;100.00;101592.41;5056180;28;20343;-63
2022/12/04 03:08:47;;;;;;;73.13;37.67;;;;;;;2.08;100.00;101594.31;5063227;28;20235;-63
2022/12/04 03:11:13;;;;;;;72.97;41.10;;;;;;;1.78;100.00;101594.59;5063779;28;20610;-63
2022/12/04 03:13:45;;;;;;;78.13;41.30;;;;;;;1.47;100.00;101593.91;5055778;28;20325;-69
2022/12/04 03:16:16;;;;;;;71.33;39.00;;;;;;;1.58;100.00;101584.97;5063828;28;20242;-64
2022/12/04 03:18:47;;;;;;;76.80;41.27;;;;;;;1.46;100.00;101579.22;5059406;28;20238;-64
2022/12/04 03:21:18;;;;;;;66.37;38.10;;;;;;;1.59;100.00;101597.13;5061647;28;20241;-64
2022/12/04 03:23:49;;;;;;;67.57;38.13;;;;;;;1.53;100.00;101589.06;5062579;28;20234;-64
2022/12/04 03:26:20;;;;;;;72.93;39.13;;;;;;;1.43;100.00;101590.28;5062694;28;20235;-64
2022/12/04 03:28:52;;;;;;;76.33;40.23;;;;;;;1.47;100.00;101597.38;5070894;28;20403;-64
2022/12/04 03:31:24;;;;;;;76.13;39.83;;;;;;;1.62;100.00;101586.94;5061907;28;20246;-67
2022/12/04 03:33:53;;;;;;;68.90;36.97;;;;;;;1.51;100.00;101588.06;5062278;28;20364;-64
2022/12/04 03:36:22;;;;;;;65.37;36.23;;;;;;;1.53;100.00;101583.88;5068702;28;20234;-64
2022/12/04 03:38:54;;;;;;;69.53;37.83;;;;;;;1.55;100.00;101590.03;5064739;28;20284;-64
2022/12/04 03:41:25;;;;;;;68.70;37.73;;;;;;;1.55;100.00;101601.25;5056935;28;20289;-64
2022/12/04 03:43:57;;;;;;;69.00;36.57;;;;;;;1.81;100.00;101597.34;5063502;28;20238;-64
2022/12/04 03:46:28;;;;;;;69.30;37.87;;;;;;;1.95;100.00;101598.00;5060910;28;20691;-63
2022/12/04 03:48:59;;;;;;;70.73;38.87;;;;;;;2.03;100.00;101595.78;5062597;28;20727;-63
2022/12/04 03:51:30;;;;;;;74.40;37.73;;;;;;;2.35;100.00;101598.19;5057492;28;20262;-62
2022/12/04 03:54:01;;;;;;;79.63;40.57;;;;;;;2.17;100.00;101586.94;5060104;28;20869;-62
2022/12/04 03:56:31;;;;;;;78.83;40.03;;;;;;;2.10;100.00;101592.66;5082536;28;20234;-62
2022/12/04 03:59:08;;;;;;;68.70;38.60;;;;;;;2.25;100.00;101595.09;5060917;28;20235;-62
2022/12/04 04:01:39;;;;;;;75.47;38.83;;;;;;;2.15;100.00;101593.78;5079287;28;20233;-62
2022/12/04 04:04:10;;;;;;;71.77;39.17;;;;;;;2.20;100.00;101588.81;5081370;28;20619;-63
2022/12/04 04:06:39;;;;;;;69.47;37.50;;;;;;;1.90;100.00;101592.63;5061634;28;20229;-65
2022/12/04 04:09:10;;;;;;;69.03;38.20;;;;;;;1.92;100.00;101583.19;5070877;28;20248;-64
2022/12/04 04:11:42;;;;;;;70.17;40.43;;;;;;;1.48;100.00;101583.66;5059316;28;20237;-64
2022/12/04 04:25:19;;;;;;;74.73;37.67;;;;;;;2.01;100.00;101561.16;5060419;28;20245;-64
2022/12/04 04:27:51;;;;;;;70.80;39.43;;;;;;;2.02;100.00;101556.03;5072509;28;20589;-64
2022/12/04 04:30:20;;;;;;;65.40;39.93;;;;;;;2.05;100.00;101557.91;5067890;28;20553;-64
2022/12/04 04:32:53;;;;;;;71.83;38.10;;;;;;;1.88;100.00;101570.94;5081833;28;20610;-63
2022/12/04 04:35:22;;;;;;;68.30;36.77;;;;;;;2.18;100.00;101564.53;5081837;28;20316;-64
2022/12/04 04:37:54;;;;;;;67.13;34.97;;;;;;;2.01;100.00;101571.53;5082850;28;20221;-62
2022/12/04 04:40:25;;;;;;;58.47;33.67;;;;;;;2.33;100.00;101565.25;5081307;28;20338;-63
2022/12/04 04:42:58;;;;;;;71.93;38.23;;;;;;;2.20;100.00;101561.19;5085834;27;20234;-63
2022/12/04 04:45:33;;;;;;;66.47;37.43;;;;;;;2.32;100.00;101556.59;5080360;28;20237;-63
2022/12/04 04:48:03;;;;;;;61.33;39.30;;;;;;;2.45;100.00;101570.09;5081229;28;20727;-62
2022/12/04 04:50:30;;;;;;;64.70;36.57;;;;;;;2.25;100.00;101567.50;5081899;28;20966;-63
2022/12/04 04:53:01;;;;;;;72.67;37.87;;;;;;;2.25;100.00;101574.38;5073747;28;20233;-64
2022/12/04 04:55:33;;;;;;;68.53;35.93;;;;;;;1.94;100.00;101585.00;5077242;28;20225;-62
2022/12/04 04:58:06;;;;;;;69.93;37.97;;;;;;;2.14;100.00;101573.84;5073915;28;20898;-62
2022/12/04 05:00:35;;;;;;;64.37;36.63;;;;;;;2.05;100.00;101571.72;5081691;28;20317;-62
2022/12/04 05:03:02;;;;;;;60.77;35.37;;;;;;;2.13;100.00;101575.56;5081494;28;20233;-63
2022/12/04 05:05:29;;;;;;;73.60;38.37;;;;;;;1.73;100.00;101583.16;5082239;28;20703;-63
2022/12/04 05:07:56;;;;;;;64.53;37.57;;;;;;;1.94;100.00;101572.94;5079855;28;20693;-64
2022/12/04 05:10:24;;;;;;;60.57;36.17;;;;;;;1.91;100.00;101575.38;5070425;28;20238;-63
2022/12/04 05:12:51;;;;;;;70.07;34.40;;;;;;;2.19;100.00;101577.56;5067497;28;20238;-63
2022/12/04 05:15:17;;;;;;;63.53;36.30;;;;;;;2.26;100.00;101574.44;5080478;28;20225;-64
2022/12/04 05:17:46;;;;;;;59.33;36.20;;;;;;;2.45;100.00;101570.97;5080405;28;20238;-63
2022/12/04 05:20:12;;;;;;;61.13;36.07;;;;;;;2.43;100.00;101577.81;5081779;28;20749;-65
2022/12/04 05:22:38;;;;;;;65.37;35.73;;;;;;;2.09;100.00;101567.59;5077479;28;20245;-63
2022/12/04 05:25:06;;;;;;;66.30;35.00;;;;;;;2.30;100.00;101571.16;5061108;28;20306;-62
2022/12/04 05:27:33;;;;;;;63.03;34.57;;;;;;;2.48;100.00;101571.09;5065567;28;20356;-63
2022/12/04 05:30:00;;;;;;;67.27;37.43;;;;;;;2.27;100.00;101583.09;5072771;28;20271;-64
2022/12/04 05:32:29;;;;;;;60.50;34.80;;;;;;;2.28;100.00;101584.84;5067083;28;20226;-63
2022/12/04 05:34:58;;;;;;;67.23;34.50;;;;;;;2.20;100.00;101574.16;5069345;28;20237;-63
2022/12/04 05:37:25;;;;;;;63.27;35.57;;;;;;;2.26;100.00;101569.25;5062122;28;20241;-63
2022/12/04 05:39:52;;;;;;;60.30;33.80;;;;;;;2.18;100.00;101565.44;5083691;28;20230;-63
2022/12/04 05:42:19;;;;;;;65.30;34.27;;;;;;;2.13;100.00;101572.09;5077481;28;20241;-63
2022/12/04 05:44:46;;;;;;;67.83;35.03;;;;;;;2.01;100.00;101571.53;5077381;28;20261;-64
2022/12/04 05:47:12;;;;;;;70.03;36.90;;;;;;;2.22;100.00;101572.53;5082339;28;20320;-64
2022/12/04 05:49:40;;;;;;;63.57;34.47;;;;;;;2.17;100.00;101571.41;5067775;28;20351;-66
2022/12/04 05:52:09;;;;;;;69.67;35.47;;;;;;;2.32;100.00;101576.44;5064772;28;20723;-64
2022/12/04 05:54:36;;;;;;;60.43;35.83;;;;;;;2.67;100.00;101572.84;5069491;28;20624;-64
2022/12/04 05:57:03;;;;;;;63.53;34.40;;;;;;;2.56;100.00;101576.63;5056107;28;20334;-63
2022/12/04 05:59:30;;;;;;;64.37;36.60;;;;;;;2.32;100.00;101569.53;5061381;28;20240;-63
2022/12/04 06:01:57;;;;;;;58.73;33.30;;;;;;;2.35;100.00;101577.47;5058348;28;20792;-63
2022/12/04 06:04:25;;;;;;;64.37;35.47;;;;;;;2.36;100.00;101573.16;5055409;28;20230;-64
2022/12/04 06:06:53;;;;;;;57.33;36.27;;;;;;;2.50;100.00;101568.59;5059777;28;20624;-63
2022/12/04 06:09:22;;;;;;;62.63;35.57;;;;;;;2.32;100.00;101564.38;5055351;28;20664;-63
2022/12/04 06:11:48;;;;;;;65.27;35.90;;;;;;;2.32;100.00;101568.66;5059979;28;20249;-64
2022/12/04 06:14:16;;;;;;;66.47;35.80;;;;;;;2.25;100.00;101569.19;5062802;28;20241;-64
2022/12/04 06:16:44;;;;;;;68.57;36.33;;;;;;;2.44;100.00;101574.38;5065239;28;20314;-63
2022/12/04 06:19:14;;;;;;;58.57;34.97;;;;;;;2.35;100.00;101569.69;5070218;28;21007;-63
2022/12/04 06:21:42;;;;;;;61.30;35.10;;;;;;;2.32;100.00;101572.13;5059655;28;20246;-63
2022/12/04 06:24:13;;;;;;;58.07;36.00;;;;;;;2.19;100.00;101566.31;5070804;28;20230;-64
2022/12/04 06:26:41;;;;;;;64.60;34.13;;;;;;;2.46;100.00;101567.59;5060498;28;20238;-63
2022/12/04 06:29:08;;;;;;;70.53;35.77;;;;;;;2.51;100.00;101570.38;5066044;28;20321;-63
2022/12/04 06:31:36;;;;;;;56.57;34.77;;;;;;;2.39;100.00;101569.00;5082956;27;20242;-62
2022/12/04 06:34:04;;;;;;;59.30;33.50;;;;;;;2.32;100.00;101569.53;5084995;28;20244;-62
2022/12/04 06:36:32;;;;;;;60.97;33.80;;;;;;;2.31;100.00;101572.94;5082321;28;20314;-63
2022/12/04 06:38:59;;;;;;;60.07;35.40;;;;;;;2.50;100.00;101576.38;5078731;28;20629;-63
2022/12/04 06:41:26;;;;;;;63.23;35.53;;;;;;;2.23;100.00;101576.00;5087490;27;20279;-63
2022/12/04 06:43:55;;;;;;;50.73;31.53;;;;;;;2.19;100.00;101572.38;5083412;28;20271;-63
2022/12/04 06:46:24;;;;;;;56.73;32.70;;;;;;;2.50;100.00;101573.78;5082029;28;21159;-62
2022/12/04 06:48:51;;;;;;;56.40;33.97;;;;;;;2.56;100.00;101567.19;5085095;28;20283;-64
2022/12/04 06:51:20;;;;;;;57.70;33.70;;;;;;;2.34;100.00;101567.88;5074689;28;20715;-64
2022/12/04 06:53:47;;;;;;;63.60;35.37;;;;;;;2.50;100.00;101577.25;5076525;28;20696;-64
2022/12/04 06:56:16;;;;;;;59.67;35.00;;;;;;;2.17;100.00;101568.81;5084892;28;20226;-63
2022/12/04 06:58:44;;;;;;;62.17;34.33;;;;;;;2.44;100.00;101576.97;5073302;28;20284;-63
2022/12/04 07:01:14;;;;;;;52.43;32.40;;;;;;;2.40;100.00;101572.47;5063035;28;20313;-63
2022/12/04 07:03:42;;;;;;;56.57;33.57;;;;;;;2.33;100.00;101570.44;5070451;28;20234;-63
2022/12/04 07:06:14;;;;;;;61.13;32.03;;;;;;;2.16;100.00;101572.22;5071162;28;20708;-64
2022/12/04 07:08:41;;;;;;;57.50;33.40;;;;;;;2.17;100.00;101568.81;5072175;28;20792;-64
2022/12/04 07:11:08;;;;;;;59.07;34.40;;;;;;;2.32;100.00;101569.53;5056713;28;20266;-63
2022/12/04 07:13:35;;;;;;;61.13;35.30;;;;;;;2.53;100.00;101567.03;5074147;28;20242;-63
2022/12/04 07:16:06;;;;;;;58.90;34.43;;;;;;;2.47;100.00;101574.53;5073696;28;20236;-64
2022/12/04 07:18:35;;;;;;;57.57;33.57;;;;;;;2.61;100.00;101568.25;5067234;28;20242;-62
2022/12/04 07:21:05;;;;;;;56.90;34.13;;;;;;;2.28;100.00;101567.63;5063399;28;20703;-62
2022/12/04 07:23:32;;;;;;;56.83;31.63;;;;;;;2.57;100.00;101575.84;5081657;28;20279;-62
2022/12/04 07:26:04;;;;;;;58.40;33.30;;;;;;;2.63;100.00;101568.31;5083529;28;20633;-62
2022/12/04 07:28:31;;;;;;;56.20;34.03;;;;;;;2.37;100.00;101565.44;5074347;28;20672;-62
2022/12/04 07:30:58;;;;;;;59.37;33.57;;;;;;;2.15;100.00;101565.28;5069176;28;20291;-62
2022/12/04 07:33:25;;;;;;;58.53;32.67;;;;;;;2.22;100.00;101571.66;5076023;28;20229;-62
2022/12/04 07:35:56;;;;;;;63.40;33.73;;;;;;;2.18;100.00;101575.78;5067194;28;20237;-63
2022/12/04 07:38:23;;;;;;;61.53;33.93;;;;;;;2.32;100.00;101577.31;5084903;28;20241;-63
2022/12/04 07:40:51;;;;;;;61.33;34.03;;;;;;;2.28;100.00;101575.41;5083706;28;20346;-64
2022/12/04 07:43:18;;;;;;;59.70;33.97;;;;;;;2.31;100.00;101575.53;5082907;28;20230;-63
2022/12/04 07:45:45;;;;;;;59.77;32.47;;;;;;;2.27;100.00;101573.59;5084289;28;20938;-63
2022/12/04 07:48:12;;;;;;;67.50;35.57;;;;;;;1.94;100.00;101580.72;5067046;28;20308;-63
2022/12/04 07:50:39;;;;;;;55.17;31.77;;;;;;;1.95;100.00;101582.47;5080991;28;20262;-62
2022/12/04 07:53:07;;;;;;;57.33;31.90;;;;;;;2.32;100.00;101590.28;5064837;28;20257;-62
2022/12/04 07:55:34;;;;;;;58.37;32.13;;;;;;;2.28;100.00;101590.03;5069147;28;20761;-61
2022/12/04 07:58:01;;;;;;;59.87;33.70;;;;;;;2.24;100.00;101581.25;5071915;28;20236;-62
2022/12/04 08:00:28;;;;;;;55.83;33.60;;;;;;;2.02;100.00;101586.25;5081176;28;20328;-63
2022/12/04 08:02:55;;;;;;;60.47;34.23;;;;;;;2.10;100.00;101587.47;5066320;28;20250;-63
2022/12/04 08:05:22;;;;;;;54.23;33.07;;;;;;;1.95;100.00;101597.13;5077444;28;20398;-65
2022/12/04 08:07:49;;;;;;;61.57;36.83;;;;;;;1.71;100.00;101597.72;5058902;28;20242;-63
2022/12/04 08:10:18;;;;;;;58.30;32.07;;;;;;;2.16;100.00;101592.97;5061763;28;20239;-63
2022/12/04 08:12:45;;;;;;;60.30;34.10;;;;;;;1.87;100.00;101600.25;5072557;28;20235;-62
2022/12/04 08:15:12;;;;;;;59.30;33.80;;;;;;;2.19;100.00;101593.09;5072893;28;20726;-62
2022/12/04 08:17:39;;;;;;;56.40;31.77;;;;;;;2.17;100.00;101596.44;5072272;28;20847;-63
2022/12/04 08:20:07;;;;;;;60.40;33.03;;;;;;;1.99;100.00;101599.03;5080902;28;20242;-64
2022/12/04 08:22:34;;;;;;;62.50;34.83;;;;;;;2.05;100.00;101589.88;5079254;28;20661;-63
2022/12/04 08:25:01;;;;;;;57.33;32.90;;;;;;;2.00;100.00;101596.53;5080785;28;20233;-65
2022/12/04 08:27:29;;;;;;;62.10;35.83;;;;;;;2.27;100.00;101590.88;5085116;28;20873;-63
2022/12/04 08:29:57;;;;;;;63.17;32.97;;;;;;;2.39;100.00;101597.50;5080537;28;20238;-63
2022/12/04 08:32:24;;;;;;;59.70;33.30;;;;;;;1.97;100.00;101600.69;5069338;28;20234;-62
2022/12/04 08:34:52;;;;;;;67.13;35.47;;;;;;;2.19;100.00;101587.03;5055140;28;20250;-63
2022/12/04 08:37:19;;;;;;;55.83;34.73;;;;;;;2.12;100.00;101589.34;5060409;28;20234;-63
2022/12/04 08:39:46;;;;;;;58.60;32.87;;;;;;;2.31;100.00;101598.84;5063543;28;20841;-63
2022/12/04 08:42:13;;;;;;;60.07;34.37;;;;;;;2.37;100.00;101604.31;5073340;28;20683;-64
2022/12/04 08:44:41;;;;;;;63.07;33.00;;;;;;;2.32;100.00;101594.56;5064989;28;20243;-64
2022/12/04 08:47:08;;;;;;;57.40;31.50;;;;;;;2.27;100.00;101596.03;5079742;28;20262;-63
2022/12/04 08:49:35;;;;;;;59.80;33.07;;;;;;;2.51;100.00;101594.59;5076735;28;20352;-64
2022/12/04 08:52:01;;;;;;;57.77;31.53;;;;;;;2.10;100.00;101592.66;5081419;28;20329;-63
2022/12/04 08:54:28;;;;;;;64.53;34.03;;;;;;;2.08;100.00;101595.19;5063697;28;20250;-64
2022/12/04 08:56:55;;;;;;;61.00;33.67;;;;;;;2.03;100.00;101593.19;5063461;28;20259;-64
2022/12/04 08:59:22;;;;;;;62.57;34.23;;;;;;;2.41;100.00;101594.97;5077964;28;20241;-64
2022/12/04 09:01:52;;;;;;;55.13;32.50;;;;;;;2.27;100.00;101586.56;5080534;28;20258;-64
2022/12/04 09:04:19;;;;;;;59.37;34.03;;;;;;;2.56;100.00;101585.31;5081237;28;20260;-64
2022/12/04 09:06:46;;;;;;;61.40;36.57;;;;;;;2.21;100.00;101591.47;5079390;28;20245;-64
2022/12/04 09:09:13;;;;;;;55.17;32.37;;;;;;;2.09;100.00;101580.53;5070166;28;20237;-64
2022/12/04 09:11:40;;;;;;;58.23;34.37;;;;;;;2.13;100.00;101577.25;5060170;28;20285;-63
2022/12/04 09:14:07;;;;;;;60.27;31.77;;;;;;;2.42;100.00;101580.31;5064769;28;20237;-63
2022/12/04 09:16:34;;;;;;;60.20;32.63;;;;;;;2.36;100.00;101584.41;5072762;28;20329;-63
2022/12/04 09:19:03;;;;;;;57.03;32.63;;;;;;;2.35;100.00;101584.31;5060359;28;20311;-64
2022/12/04 09:21:30;;;;;;;55.40;31.00;;;;;;;2.37;100.00;101587.88;5060507;28;20286;-64
2022/12/04 09:23:59;;;;;;;60.83;34.40;;;;;;;2.10;100.00;101590.94;5058351;28;20784;-64
2022/12/04 09:26:28;;;;;;;73.60;37.63;;;;;;;1.88;100.00;101601.13;5060233;28;20266;-64
2022/12/04 09:28:56;;;;;;;59.67;33.13;;;;;;;1.89;100.00;101598.59;5078063;28;20336;-64
2022/12/04 09:31:27;;;;;;;58.50;33.77;;;;;;;2.08;100.00;101594.31;5069652;28;20238;-63
2022/12/04 09:33:53;;;;;;;55.67;32.50;;;;;;;2.13;100.00;101593.69;5064335;28;20246;-64
2022/12/04 09:36:22;;;;;;;55.00;30.33;;;;;;;2.64;100.00;101588.25;5078282;28;20953;-64
2022/12/04 09:38:50;;;;;;;56.63;33.37;;;;;;;2.96;100.00;101601.75;5083470;28;20229;-65
2022/12/04 09:41:26;;;;;;;60.83;34.60;;;;;;;2.71;100.00;101592.91;5073486;28;20279;-65
2022/12/04 09:43:56;;;;;;;60.87;33.60;;;;;;;2.62;100.00;101589.88;5080814;28;20309;-64
2022/12/04 09:46:27;;;;;;;55.80;31.40;;;;;;;2.67;100.00;101593.59;5068180;28;20234;-63
2022/12/04 09:48:54;;;;;;;57.63;31.33;;;;;;;2.63;100.00;101589.97;5071396;28;20231;-63
2022/12/04 09:51:23;;;;;;;58.53;31.73;;;;;;;3.13;100.00;101589.53;5065502;28;20731;-63
2022/12/04 09:53:54;;;;;;;49.37;32.10;;;;;;;3.19;100.00;101589.75;5065445;28;20242;-63
2022/12/04 09:56:25;;;;;;;54.37;31.27;;;;;;;3.25;100.00;101590.03;5060515;28;20231;-64
2022/12/04 09:58:55;;;;;;;56.97;32.37;;;;;;;3.10;100.00;101582.50;5058728;28;20326;-64
2022/12/04 10:01:25;;;;;;;61.23;31.67;;;;;;;3.06;100.00;101575.41;5066606;28;20230;-64
2022/12/04 10:03:53;;;;;;;53.87;29.60;;;;;;;2.89;100.00;101571.19;5063924;28;20894;-64
2022/12/04 10:06:25;;;;;;;49.93;32.10;;;;;;;3.02;100.00;101571.78;5066130;28;20296;-63
2022/12/04 10:08:57;;;;;;;53.43;31.77;;;;;;;2.87;100.00;101556.41;5065724;28;20262;-64
2022/12/04 10:11:29;;;;;;;52.47;31.10;;;;;;;2.71;100.00;101556.59;5060185;28;20238;-64
2022/12/04 10:14:05;;;;;;;64.83;34.00;;;;;;;2.51;100.00;101557.41;5062838;28;20237;-64
2022/12/04 10:16:43;;;;;;;56.10;32.63;;;;;;;2.70;100.00;101557.38;5056250;28;20332;-64
2022/12/04 10:19:17;;;;;;;56.23;31.37;;;;;;;2.81;100.00;101560.50;5059775;28;20234;-65
2022/12/04 10:21:52;;;;;;;59.23;33.27;;;;;;;2.88;100.00;101546.97;5072335;28;20347;-64
2022/12/04 10:24:28;;;;;;;58.53;31.73;;;;;;;3.21;100.00;101552.69;5081756;28;20229;-65
2022/12/04 10:26:56;;;;;;;54.97;30.73;;;;;;;3.37;100.00;101540.34;5081413;27;20739;-64
2022/12/04 10:29:26;;;;;;;55.17;31.43;;;;;;;3.30;100.00;101542.69;5073641;28;20236;-64
2022/12/04 10:31:55;;;;;;;50.20;30.93;;;;;;;2.81;100.00;101550.13;5064606;28;20599;-63
2022/12/04 10:34:25;;;;;;;56.37;31.53;;;;;;;2.66;100.00;101532.16;5074380;28;20242;-66
2022/12/04 10:36:55;;;;;;;55.83;33.07;;;;;;;2.70;100.00;101526.28;5077872;28;20237;-64
2022/12/04 10:39:25;;;;;;;52.03;30.67;;;;;;;2.53;100.00;101519.50;5067345;28;20638;-64
2022/12/04 10:41:57;;;;;;;59.07;34.23;;;;;;;2.49;100.00;101526.25;5065979;28;20264;-64
2022/12/04 10:44:24;;;;;;;56.57;32.30;;;;;;;2.75;100.00;101534.28;5081054;28;20294;-64
2022/12/04 10:46:56;;;;;;;59.57;31.97;;;;;;;2.72;100.00;101539.31;5079164;28;20249;-63
2022/12/04 10:49:26;;;;;;;54.37;30.70;;;;;;;2.78;100.00;101537.91;5079559;28;20243;-63
2022/12/04 10:51:55;;;;;;;60.83;33.30;;;;;;;2.77;100.00;101533.53;5082373;28;20733;-63
2022/12/04 10:54:31;;;;;;;61.00;32.27;;;;;;;2.76;100.00;101534.34;5059630;28;20687;-63
2022/12/04 10:56:59;;;;;;;53.33;31.27;;;;;;;2.68;100.00;101522.75;5061175;28;20329;-64
2022/12/04 10:59:26;;;;;;;57.93;32.17;;;;;;;2.87;100.00;101533.09;5080932;28;20233;-63
2022/12/04 11:02:00;;;;;;;52.20;31.40;;;;;;;2.92;100.00;101527.22;5082592;28;20275;-63
2022/12/04 11:04:28;;;;;;;60.97;32.23;;;;;;;3.03;100.00;101515.59;5064992;28;20253;-67
2022/12/04 11:07:02;;;;;;;56.87;30.43;;;;;;;2.92;100.00;101516.88;5066992;28;20289;-62
2022/12/04 11:09:29;;;;;;;58.17;33.13;;;;;;;2.73;100.00;101512.56;5078288;28;20655;-63
2022/12/04 11:12:06;;;;;;;56.37;34.03;;;;;;;2.69;100.00;101508.97;5071395;28;20242;-64
2022/12/04 11:14:33;;;;;;;52.00;28.33;;;;;;;2.89;100.00;101511.53;5065643;28;20337;-64
2022/12/04 11:17:01;;;;;;;56.10;30.70;;;;;;;2.86;100.00;101505.38;5081750;28;20242;-63
2022/12/04 11:19:31;;;;;;;59.33;31.33;;;;;;;2.75;100.00;101510.94;5065371;28;20249;-65
2022/12/04 11:22:04;;;;;;;51.37;30.63;;;;;;;2.87;100.00;101509.75;5062311;28;20226;-63
2022/12/04 11:24:33;;;;;;;55.53;32.00;;;;;;;3.09;100.00;101508.97;5061288;28;20227;-64
2022/12/04 11:27:01;;;;;;;57.07;31.20;;;;;;;3.03;100.00;101515.59;5077198;28;20330;-62
2022/12/04 11:29:32;;;;;;;58.67;31.57;;;;;;;2.98;100.00;101512.78;5077196;27;20230;-64